createdAt,value
2018-12-26T00:00:43.661Z,0.00
2018-12-26T00:01:43.815Z,0.00
2018-12-26T00:02:43.746Z,0.00
2018-12-26T00:03:43.832Z,0.00
2018-12-26T00:04:43.831Z,0.00
2018-12-26T00:05:43.927Z,0.00
2018-12-26T00:06:43.919Z,0.00
2018-12-26T00:07:43.962Z,0.00
2018-12-26T00:08:44.031Z,0.00
2018-12-26T00:09:44.071Z,0.00
2018-12-26T00:10:44.109Z,0.00
2018-12-26T00:11:44.124Z,0.00
2018-12-26T00:12:44.187Z,0.00
2018-12-26T00:13:44.225Z,0.00
2018-12-26T00:14:44.297Z,0.00
2018-12-26T00:15:44.350Z,0.00
2018-12-26T00:16:44.365Z,0.00
2018-12-26T00:17:44.422Z,0.00
2018-12-26T00:18:44.519Z,0.00
2018-12-26T00:19:44.639Z,0.00
2018-12-26T00:20:44.573Z,0.00
2018-12-26T00:21:44.601Z,0.00
2018-12-26T00:22:44.656Z,0.00
2018-12-26T00:23:44.687Z,0.00
2018-12-26T00:24:44.745Z,0.00
2018-12-26T00:25:44.796Z,0.00
2018-12-26T00:26:44.832Z,0.00
2018-12-26T00:27:44.857Z,0.00
2018-12-26T00:28:44.914Z,0.00
2018-12-26T00:29:44.981Z,0.00
2018-12-26T00:30:45.045Z,0.00
2018-12-26T00:31:45.064Z,0.00
2018-12-26T00:32:45.118Z,0.00
2018-12-26T00:33:45.159Z,0.00
2018-12-26T00:34:45.188Z,0.00
2018-12-26T00:35:45.222Z,0.00
2018-12-26T00:36:45.293Z,0.00
2018-12-26T00:37:45.323Z,0.00
2018-12-26T00:38:45.394Z,0.00
2018-12-26T00:39:45.432Z,0.00
2018-12-26T00:40:45.478Z,0.00
2018-12-26T00:41:45.519Z,0.00
2018-12-26T00:42:45.667Z,0.00
2018-12-26T00:43:45.593Z,0.00
2018-12-26T00:44:45.667Z,0.00
2018-12-26T00:45:45.717Z,0.00
2018-12-26T00:46:45.751Z,0.00
2018-12-26T00:47:45.777Z,0.00
2018-12-26T00:48:45.876Z,0.00
2018-12-26T00:49:45.934Z,0.00
2018-12-26T00:50:45.941Z,0.00
2018-12-26T00:51:45.980Z,0.00
2018-12-26T00:52:46.003Z,0.00
2018-12-26T00:53:46.058Z,0.00
2018-12-26T00:54:46.096Z,0.00
2018-12-26T00:55:46.151Z,0.00
2018-12-26T00:56:46.198Z,0.00
2018-12-26T00:57:46.241Z,0.00
2018-12-26T00:58:46.295Z,0.00
2018-12-26T00:59:46.341Z,0.00
2018-12-26T01:00:46.437Z,0.00
2018-12-26T01:01:46.468Z,0.00
2018-12-26T01:02:46.469Z,0.00
2018-12-26T01:03:46.530Z,0.00
2018-12-26T01:04:46.575Z,0.00
2018-12-26T01:05:46.693Z,0.00
2018-12-26T01:06:46.657Z,0.00
2018-12-26T01:07:46.746Z,0.00
2018-12-26T01:08:46.759Z,0.00
2018-12-26T01:09:46.780Z,0.00
2018-12-26T01:10:46.848Z,0.00
2018-12-26T01:11:46.873Z,0.00
2018-12-26T01:12:46.910Z,0.00
2018-12-26T01:13:46.979Z,0.00
2018-12-26T01:14:47.035Z,0.00
2018-12-26T01:15:47.066Z,0.00
2018-12-26T01:16:47.114Z,0.00
2018-12-26T01:17:47.148Z,0.00
2018-12-26T01:18:47.197Z,0.00
2018-12-26T01:19:47.246Z,0.00
2018-12-26T01:20:47.291Z,0.00
2018-12-26T01:21:47.340Z,0.00
2018-12-26T01:22:47.426Z,0.00
2018-12-26T01:23:47.432Z,0.00
2018-12-26T01:24:47.477Z,0.00
2018-12-26T01:25:47.532Z,0.00
2018-12-26T01:26:47.570Z,0.00
2018-12-26T01:27:47.607Z,0.00
2018-12-26T01:28:47.656Z,0.00
2018-12-26T01:29:47.701Z,0.00
2018-12-26T01:30:47.730Z,0.00
2018-12-26T01:31:47.781Z,0.00
2018-12-26T01:32:47.849Z,0.00
2018-12-26T01:33:47.866Z,0.00
2018-12-26T01:34:47.962Z,0.00
2018-12-26T01:35:47.952Z,0.00
2018-12-26T01:36:48.006Z,0.00
2018-12-26T01:37:48.069Z,0.00
2018-12-26T01:38:48.104Z,0.00
2018-12-26T01:39:48.151Z,0.00
2018-12-26T01:40:48.191Z,0.00
2018-12-26T01:41:48.226Z,0.00
2018-12-26T01:42:48.351Z,0.00
2018-12-26T01:43:48.335Z,0.00
2018-12-26T01:44:48.364Z,0.00
2018-12-26T01:45:48.446Z,0.00
2018-12-26T01:46:48.511Z,0.00
2018-12-26T01:47:48.518Z,0.00
2018-12-26T01:48:48.570Z,0.00
2018-12-26T01:49:48.602Z,0.00
2018-12-26T01:50:48.701Z,0.00
2018-12-26T01:51:48.688Z,0.00
2018-12-26T01:52:48.751Z,0.00
2018-12-26T01:53:48.779Z,0.00
2018-12-26T01:54:48.849Z,0.00
2018-12-26T01:55:48.858Z,0.00
2018-12-26T01:56:48.943Z,0.00
2018-12-26T01:57:48.969Z,0.00
2018-12-26T01:58:49.061Z,0.00
2018-12-26T01:59:49.087Z,0.00
2018-12-26T02:00:49.106Z,0.00
2018-12-26T02:01:49.152Z,0.00
2018-12-26T02:02:49.207Z,0.00
2018-12-26T02:03:49.254Z,0.00
2018-12-26T02:04:49.323Z,0.00
2018-12-26T02:05:49.346Z,0.00
2018-12-26T02:06:49.397Z,0.00
2018-12-26T02:07:49.430Z,0.00
2018-12-26T02:08:49.469Z,0.00
2018-12-26T02:09:49.511Z,0.00
2018-12-26T02:10:49.577Z,0.00
2018-12-26T02:11:49.630Z,0.00
2018-12-26T02:12:49.640Z,0.00
2018-12-26T02:13:49.688Z,0.00
2018-12-26T02:14:49.788Z,0.00
2018-12-26T02:15:49.769Z,0.00
2018-12-26T02:16:49.878Z,0.00
2018-12-26T02:17:49.884Z,0.00
2018-12-26T02:18:49.975Z,0.00
2018-12-26T02:19:49.972Z,0.00
2018-12-26T02:20:50.016Z,0.00
2018-12-26T02:21:50.060Z,0.00
2018-12-26T02:22:50.104Z,0.00
2018-12-26T02:23:50.161Z,0.00
2018-12-26T02:24:50.229Z,0.00
2018-12-26T02:25:50.249Z,0.00
2018-12-26T02:26:50.281Z,0.00
2018-12-26T02:27:50.341Z,0.00
2018-12-26T02:28:50.380Z,0.00
2018-12-26T02:29:50.427Z,0.00
2018-12-26T02:30:50.468Z,0.00
2018-12-26T02:31:50.524Z,0.00
2018-12-26T02:32:50.546Z,0.00
2018-12-26T02:33:50.624Z,0.00
2018-12-26T02:34:50.643Z,0.00
2018-12-26T02:35:50.678Z,0.00
2018-12-26T02:36:50.757Z,0.00
2018-12-26T02:37:50.804Z,0.00
2018-12-26T02:38:50.852Z,0.00
2018-12-26T02:39:50.881Z,0.00
2018-12-26T02:40:50.902Z,0.00
2018-12-26T02:41:50.954Z,0.00
2018-12-26T02:42:51.046Z,0.00
2018-12-26T02:43:51.046Z,0.00
2018-12-26T02:44:51.105Z,0.00
2018-12-26T02:45:51.159Z,0.00
2018-12-26T02:46:51.179Z,0.00
2018-12-26T02:47:51.219Z,0.00
2018-12-26T02:48:51.286Z,0.00
2018-12-26T02:49:51.310Z,0.00
2018-12-26T02:50:51.419Z,0.00
2018-12-26T02:51:51.394Z,0.00
2018-12-26T02:52:51.463Z,0.00
2018-12-26T02:53:51.494Z,0.00
2018-12-26T02:54:51.535Z,0.00
2018-12-26T02:55:51.577Z,0.00
2018-12-26T02:56:51.673Z,0.00
2018-12-26T02:57:51.687Z,0.00
2018-12-26T02:58:51.737Z,0.00
2018-12-26T02:59:51.763Z,0.00
2018-12-26T03:00:51.828Z,0.00
2018-12-26T03:01:51.855Z,0.00
2018-12-26T03:02:51.904Z,0.00
2018-12-26T03:03:51.962Z,0.00
2018-12-26T03:04:52.048Z,0.00
2018-12-26T03:05:52.078Z,0.00
2018-12-26T03:06:52.088Z,0.00
2018-12-26T03:07:52.141Z,0.00
2018-12-26T03:08:52.309Z,0.00
2018-12-26T03:09:52.226Z,0.00
2018-12-26T03:10:52.263Z,0.00
2018-12-26T03:11:52.306Z,0.00
2018-12-26T03:12:52.359Z,0.00
2018-12-26T03:13:52.381Z,0.00
2018-12-26T03:14:52.452Z,0.00
2018-12-26T03:15:52.483Z,0.00
2018-12-26T03:16:52.528Z,0.00
2018-12-26T03:17:52.577Z,0.00
2018-12-26T03:18:52.602Z,0.00
2018-12-26T03:19:52.664Z,0.00
2018-12-26T03:20:52.743Z,0.00
2018-12-26T03:21:52.776Z,0.00
2018-12-26T03:22:52.818Z,0.00
2018-12-26T03:23:52.853Z,0.00
2018-12-26T03:24:52.912Z,0.00
2018-12-26T03:25:52.919Z,0.00
2018-12-26T03:26:56.456Z,0.00
2018-12-26T03:27:53.024Z,0.00
2018-12-26T03:28:53.073Z,0.00
2018-12-26T03:29:53.111Z,0.00
2018-12-26T03:30:53.175Z,0.00
2018-12-26T03:31:53.219Z,0.00
2018-12-26T03:32:53.251Z,0.00
2018-12-26T03:33:53.345Z,0.00
2018-12-26T03:34:53.323Z,0.00
2018-12-26T03:35:53.383Z,0.00
2018-12-26T03:36:53.467Z,0.00
2018-12-26T03:37:53.473Z,0.00
2018-12-26T03:38:53.514Z,0.00
2018-12-26T03:39:53.566Z,0.00
2018-12-26T03:40:53.590Z,0.00
2018-12-26T03:41:53.668Z,0.00
2018-12-26T03:42:53.701Z,0.00
2018-12-26T03:43:53.746Z,0.00
2018-12-26T03:44:53.792Z,0.00
2018-12-26T03:45:53.849Z,0.00
2018-12-26T03:46:53.887Z,0.00
2018-12-26T03:47:53.968Z,0.00
2018-12-26T03:48:53.993Z,0.00
2018-12-26T03:49:54.030Z,0.00
2018-12-26T03:50:54.054Z,0.00
2018-12-26T03:51:54.129Z,0.00
2018-12-26T03:52:54.160Z,0.00
2018-12-26T03:53:54.241Z,0.00
2018-12-26T03:54:54.245Z,0.00
2018-12-26T03:55:54.293Z,0.00
2018-12-26T03:56:54.340Z,0.00
2018-12-26T03:57:54.382Z,0.00
2018-12-26T03:58:54.413Z,0.00
2018-12-26T03:59:54.525Z,0.00
2018-12-26T04:00:54.511Z,0.00
2018-12-26T04:01:54.555Z,0.00
2018-12-26T04:02:54.590Z,0.00
2018-12-26T04:03:54.638Z,0.00
2018-12-26T04:04:54.700Z,0.00
2018-12-26T04:05:54.770Z,0.00
2018-12-26T04:06:54.797Z,0.00
2018-12-26T04:07:54.866Z,0.00
2018-12-26T04:08:54.875Z,0.00
2018-12-26T04:09:54.922Z,0.00
2018-12-26T04:10:54.984Z,0.00
2018-12-26T04:11:55.045Z,0.00
2018-12-26T04:12:55.054Z,0.00
2018-12-26T04:13:55.115Z,0.00
2018-12-26T04:14:55.141Z,0.00
2018-12-26T04:15:55.162Z,0.00
2018-12-26T04:16:55.223Z,0.00
2018-12-26T04:17:55.284Z,0.00
2018-12-26T04:18:55.313Z,0.00
2018-12-26T04:19:55.360Z,0.00
2018-12-26T04:20:55.417Z,0.00
2018-12-26T04:21:55.447Z,0.00
2018-12-26T04:22:55.521Z,0.00
2018-12-26T04:23:55.551Z,0.00
2018-12-26T04:24:55.579Z,0.00
2018-12-26T04:25:55.619Z,0.00
2018-12-26T04:26:55.686Z,0.00
2018-12-26T04:27:55.722Z,0.00
2018-12-26T04:28:55.757Z,0.00
2018-12-26T04:29:55.831Z,0.00
2018-12-26T04:30:55.849Z,0.00
2018-12-26T04:31:55.896Z,0.00
2018-12-26T04:32:55.948Z,0.00
2018-12-26T04:33:55.990Z,0.00
2018-12-26T04:34:56.028Z,0.00
2018-12-26T04:35:56.061Z,0.00
2018-12-26T04:36:56.125Z,0.00
2018-12-26T04:37:56.173Z,0.00
2018-12-26T04:38:56.195Z,0.00
2018-12-26T04:39:56.267Z,0.00
2018-12-26T04:40:56.314Z,0.00
2018-12-26T04:41:56.343Z,0.00
2018-12-26T04:42:56.407Z,0.00
2018-12-26T04:43:56.426Z,0.00
2018-12-26T04:44:56.484Z,0.00
2018-12-26T04:45:56.533Z,0.00
2018-12-26T04:46:56.566Z,0.00
2018-12-26T04:47:56.613Z,0.00
2018-12-26T04:48:56.665Z,0.00
2018-12-26T04:49:56.716Z,0.00
2018-12-26T04:50:56.753Z,0.00
2018-12-26T04:51:56.843Z,0.00
2018-12-26T04:52:56.878Z,0.00
2018-12-26T04:53:56.882Z,0.00
2018-12-26T04:54:56.943Z,0.00
2018-12-26T04:55:56.974Z,0.00
2018-12-26T04:56:57.007Z,0.00
2018-12-26T04:57:57.055Z,0.00
2018-12-26T04:58:57.103Z,0.00
2018-12-26T04:59:57.164Z,0.00
2018-12-26T05:00:57.205Z,0.00
2018-12-26T05:01:57.245Z,0.00
2018-12-26T05:02:57.268Z,0.00
2018-12-26T05:03:57.320Z,0.00
2018-12-26T05:04:57.365Z,0.00
2018-12-26T05:05:57.411Z,0.00
2018-12-26T05:06:57.463Z,0.00
2018-12-26T05:07:57.551Z,0.00
2018-12-26T05:08:57.609Z,0.00
2018-12-26T05:09:57.603Z,0.00
2018-12-26T05:10:57.647Z,0.00
2018-12-26T05:11:57.732Z,0.00
2018-12-26T05:12:57.730Z,0.00
2018-12-26T05:13:57.774Z,0.00
2018-12-26T05:14:57.820Z,0.00
2018-12-26T05:15:57.901Z,0.00
2018-12-26T05:16:57.914Z,0.00
2018-12-26T05:17:57.953Z,0.00
2018-12-26T05:18:58.047Z,0.00
2018-12-26T05:19:58.040Z,0.00
2018-12-26T05:20:58.096Z,0.00
2018-12-26T05:21:58.129Z,0.00
2018-12-26T05:22:58.177Z,0.00
2018-12-26T05:23:58.266Z,0.00
2018-12-26T05:24:58.270Z,0.00
2018-12-26T05:25:58.320Z,0.00
2018-12-26T05:26:58.369Z,0.00
2018-12-26T05:27:58.406Z,0.00
2018-12-26T05:28:58.444Z,0.00
2018-12-26T05:29:58.484Z,0.00
2018-12-26T05:30:58.576Z,0.00
2018-12-26T05:31:58.570Z,0.00
2018-12-26T05:32:58.610Z,0.00
2018-12-26T05:33:58.676Z,0.00
2018-12-26T05:34:58.712Z,0.00
2018-12-26T05:35:58.748Z,0.00
2018-12-26T05:36:58.791Z,0.00
2018-12-26T05:37:58.847Z,0.00
2018-12-26T05:38:58.890Z,0.00
2018-12-26T05:39:58.948Z,0.00
2018-12-26T05:40:58.982Z,0.00
2018-12-26T05:41:59.031Z,0.00
2018-12-26T05:42:59.067Z,0.00
2018-12-26T05:43:59.111Z,0.00
2018-12-26T05:44:59.156Z,0.00
2018-12-26T05:45:59.204Z,0.00
2018-12-26T05:46:59.245Z,0.00
2018-12-26T05:47:59.301Z,0.00
2018-12-26T05:48:59.312Z,0.00
2018-12-26T05:49:59.412Z,0.00
2018-12-26T05:50:59.422Z,0.00
2018-12-26T05:51:59.462Z,0.00
2018-12-26T05:52:59.478Z,0.00
2018-12-26T05:53:59.537Z,0.00
2018-12-26T05:54:59.590Z,0.00
2018-12-26T05:55:59.946Z,0.00
2018-12-26T05:56:59.674Z,0.00
2018-12-26T05:57:59.754Z,0.00
2018-12-26T05:58:59.756Z,0.00
2018-12-26T05:59:59.807Z,0.00
2018-12-26T06:00:59.908Z,0.00
2018-12-26T06:01:59.908Z,0.00
2018-12-26T06:02:59.963Z,0.00
2018-12-26T06:03:59.985Z,0.00
2018-12-26T06:05:00.085Z,0.00
2018-12-26T06:06:00.100Z,0.00
2018-12-26T06:07:00.112Z,0.00
2018-12-26T06:08:00.179Z,0.00
2018-12-26T06:09:00.224Z,0.00
2018-12-26T06:10:00.291Z,0.00
2018-12-26T06:11:00.296Z,0.00
2018-12-26T06:12:00.352Z,0.00
2018-12-26T06:13:00.423Z,0.00
2018-12-26T06:14:00.474Z,0.00
2018-12-26T06:15:00.469Z,0.00
2018-12-26T06:16:00.528Z,0.00
2018-12-26T06:17:00.578Z,0.00
2018-12-26T06:18:00.596Z,0.00
2018-12-26T06:19:00.665Z,0.00
2018-12-26T06:20:00.708Z,0.00
2018-12-26T06:21:00.735Z,0.00
2018-12-26T06:22:00.790Z,0.00
2018-12-26T06:23:00.844Z,0.00
2018-12-26T06:24:00.891Z,0.00
2018-12-26T06:25:00.933Z,0.00
2018-12-26T06:26:00.957Z,0.00
2018-12-26T06:27:00.992Z,0.00
2018-12-26T06:28:01.047Z,0.00
2018-12-26T06:29:01.154Z,0.00
2018-12-26T06:30:01.145Z,0.00
2018-12-26T06:31:01.180Z,0.00
2018-12-26T06:32:01.232Z,0.00
2018-12-26T06:33:01.262Z,0.00
2018-12-26T06:34:01.315Z,0.00
2018-12-26T06:35:01.353Z,0.00
2018-12-26T06:36:01.410Z,0.00
2018-12-26T06:37:01.460Z,0.00
2018-12-26T06:38:01.636Z,0.00
2018-12-26T06:39:01.537Z,0.00
2018-12-26T06:40:01.588Z,0.00
2018-12-26T06:41:01.652Z,0.00
2018-12-26T06:42:01.665Z,0.00
2018-12-26T06:43:01.727Z,0.00
2018-12-26T06:44:01.759Z,0.00
2018-12-26T06:45:01.857Z,0.00
2018-12-26T06:46:01.894Z,0.00
2018-12-26T06:47:02.049Z,0.00
2018-12-26T06:48:02.003Z,0.00
2018-12-26T06:49:01.984Z,0.00
2018-12-26T06:50:02.098Z,0.00
2018-12-26T06:51:02.128Z,0.00
2018-12-26T06:52:02.178Z,0.00
2018-12-26T06:53:02.153Z,0.00
2018-12-26T06:54:02.222Z,0.00
2018-12-26T06:55:02.266Z,0.00
2018-12-26T06:56:02.317Z,0.00
2018-12-26T06:57:02.418Z,0.00
2018-12-26T06:58:02.389Z,0.00
2018-12-26T06:59:02.457Z,0.00
2018-12-26T07:00:02.464Z,0.00
2018-12-26T07:01:02.527Z,0.00
2018-12-26T07:02:02.572Z,0.00
2018-12-26T07:03:02.624Z,0.00
2018-12-26T07:04:02.653Z,0.00
2018-12-26T07:05:02.689Z,0.00
2018-12-26T07:06:02.748Z,0.00
2018-12-26T07:07:02.797Z,0.00
2018-12-26T07:08:02.847Z,0.00
2018-12-26T07:09:02.876Z,0.00
2018-12-26T07:10:02.899Z,0.00
2018-12-26T07:11:02.995Z,0.00
2018-12-26T07:12:03.013Z,0.00
2018-12-26T07:13:03.054Z,0.00
2018-12-26T07:14:03.095Z,0.00
2018-12-26T07:15:03.131Z,0.00
2018-12-26T07:16:03.190Z,0.00
2018-12-26T07:17:03.252Z,0.00
2018-12-26T07:18:03.289Z,0.00
2018-12-26T07:19:03.324Z,0.00
2018-12-26T07:20:03.370Z,0.00
2018-12-26T07:21:03.445Z,0.00
2018-12-26T07:22:03.491Z,0.00
2018-12-26T07:23:03.492Z,0.00
2018-12-26T07:24:03.549Z,0.00
2018-12-26T07:25:03.583Z,0.00
2018-12-26T07:26:03.612Z,0.00
2018-12-26T07:27:03.661Z,0.00
2018-12-26T07:28:08.969Z,0.00
2018-12-26T07:29:03.782Z,0.00
2018-12-26T07:30:03.847Z,0.00
2018-12-26T07:31:03.869Z,0.00
2018-12-26T07:32:03.898Z,0.00
2018-12-26T07:33:03.952Z,0.00
2018-12-26T07:34:03.998Z,0.00
2018-12-26T07:35:04.035Z,0.00
2018-12-26T07:36:04.084Z,0.00
2018-12-26T07:37:04.163Z,0.00
2018-12-26T07:38:04.151Z,0.00
2018-12-26T07:39:04.225Z,0.00
2018-12-26T07:40:04.262Z,0.00
2018-12-26T07:41:04.292Z,0.00
2018-12-26T07:42:04.356Z,0.00
2018-12-26T07:43:04.403Z,0.00
2018-12-26T07:44:04.429Z,0.00
2018-12-26T07:45:04.482Z,0.00
2018-12-26T07:46:04.530Z,0.00
2018-12-26T07:47:04.577Z,0.00
2018-12-26T07:48:04.606Z,0.00
2018-12-26T07:49:04.657Z,0.00
2018-12-26T07:50:04.702Z,0.00
2018-12-26T07:51:04.746Z,0.00
2018-12-26T07:52:04.769Z,4.00
2018-12-26T07:53:05.092Z,0.00
2018-12-26T07:54:04.883Z,4.00
2018-12-26T07:55:04.959Z,4.00
2018-12-26T07:56:04.974Z,4.00
2018-12-26T07:57:04.999Z,4.00
2018-12-26T07:58:05.062Z,8.00
2018-12-26T07:59:05.191Z,8.00
2018-12-26T08:00:05.117Z,12.00
2018-12-26T08:01:05.180Z,16.00
2018-12-26T08:02:05.241Z,20.00
2018-12-26T08:03:05.283Z,28.00
2018-12-26T08:04:05.312Z,32.00
2018-12-26T08:05:05.420Z,40.00
2018-12-26T08:06:05.411Z,48.00
2018-12-26T08:07:05.467Z,64.00
2018-12-26T08:08:05.477Z,80.00
2018-12-26T08:09:05.521Z,96.00
2018-12-26T08:10:05.598Z,116.00
2018-12-26T08:11:05.613Z,140.00
2018-12-26T08:12:05.678Z,164.00
2018-12-26T08:13:05.724Z,192.00
2018-12-26T08:14:05.755Z,224.00
2018-12-26T08:15:10.431Z,264.00
2018-12-26T08:16:05.851Z,304.00
2018-12-26T08:17:05.896Z,344.00
2018-12-26T08:18:05.933Z,388.00
2018-12-26T08:19:05.968Z,432.00
2018-12-26T08:20:06.014Z,476.00
2018-12-26T08:21:06.069Z,532.00
2018-12-26T08:22:06.104Z,588.00
2018-12-26T08:23:06.149Z,652.00
2018-12-26T08:24:06.263Z,712.00
2018-12-26T08:25:06.241Z,776.00
2018-12-26T08:26:06.296Z,844.00
2018-12-26T08:27:06.344Z,920.00
2018-12-26T08:28:06.427Z,988.00
2018-12-26T08:29:06.428Z,1068.00
2018-12-26T08:30:06.466Z,1144.00
2018-12-26T08:31:06.509Z,1224.00
2018-12-26T08:32:06.564Z,1308.00
2018-12-26T08:33:06.613Z,1392.00
2018-12-26T08:34:06.637Z,1452.00
2018-12-26T08:35:06.696Z,1512.00
2018-12-26T08:36:06.748Z,1600.00
2018-12-26T08:37:06.782Z,1732.00
2018-12-26T08:38:06.949Z,1836.00
2018-12-26T08:39:06.868Z,1968.00
2018-12-26T08:40:06.923Z,2108.00
2018-12-26T08:41:07.007Z,2208.00
2018-12-26T08:42:07.027Z,2292.00
2018-12-26T08:43:07.032Z,2388.00
2018-12-26T08:44:07.098Z,2440.00
2018-12-26T08:45:07.132Z,2676.00
2018-12-26T08:46:07.221Z,3008.00
2018-12-26T08:47:07.211Z,3224.00
2018-12-26T08:48:07.263Z,3484.00
2018-12-26T08:49:07.314Z,3876.00
2018-12-26T08:50:07.458Z,4084.00
2018-12-26T08:51:07.411Z,4160.00
2018-12-26T08:52:07.453Z,4108.00
2018-12-26T08:53:07.495Z,4032.00
2018-12-26T08:54:07.532Z,4016.00
2018-12-26T08:55:07.585Z,4016.00
2018-12-26T08:56:07.646Z,4116.00
2018-12-26T08:57:07.662Z,4340.00
2018-12-26T08:58:07.708Z,4628.00
2018-12-26T08:59:07.808Z,4976.00
2018-12-26T09:00:07.807Z,5312.00
2018-12-26T09:01:07.865Z,5580.00
2018-12-26T09:02:07.911Z,5796.00
2018-12-26T09:03:07.938Z,5940.00
2018-12-26T09:04:07.981Z,6100.00
2018-12-26T09:05:08.040Z,6172.00
2018-12-26T09:06:08.105Z,6204.00
2018-12-26T09:07:08.123Z,6232.00
2018-12-26T09:08:08.152Z,6256.00
2018-12-26T09:09:08.192Z,6272.00
2018-12-26T09:10:08.507Z,6260.00
2018-12-26T09:11:08.299Z,6364.00
2018-12-26T09:12:08.352Z,6548.00
2018-12-26T09:13:08.411Z,6804.00
2018-12-26T09:14:08.444Z,7012.00
2018-12-26T09:15:08.476Z,7120.00
2018-12-26T09:16:08.528Z,7220.00
2018-12-26T09:17:08.585Z,7452.00
2018-12-26T09:18:08.616Z,7428.00
2018-12-26T09:19:08.655Z,7156.00
2018-12-26T09:20:08.734Z,6892.00
2018-12-26T09:21:08.754Z,7356.00
2018-12-26T09:22:08.799Z,7336.00
2018-12-26T09:23:09.568Z,9312.00
2018-12-26T09:24:08.892Z,9804.00
2018-12-26T09:25:08.944Z,6768.00
2018-12-26T09:26:08.987Z,5772.00
2018-12-26T09:27:09.029Z,5936.00
2018-12-26T09:28:09.045Z,6464.00
2018-12-26T09:29:09.133Z,7808.00
2018-12-26T09:30:09.151Z,8888.00
2018-12-26T09:31:09.191Z,8968.00
2018-12-26T09:32:09.242Z,10944.00
2018-12-26T09:33:09.306Z,11192.00
2018-12-26T09:34:09.345Z,12716.00
2018-12-26T09:35:09.409Z,10328.00
2018-12-26T09:36:09.687Z,9520.00
2018-12-26T09:37:09.483Z,9912.00
2018-12-26T09:38:09.532Z,10712.00
2018-12-26T09:39:09.560Z,11320.00
2018-12-26T09:40:09.608Z,11656.00
2018-12-26T09:41:09.681Z,12068.00
2018-12-26T09:42:09.703Z,12952.00
2018-12-26T09:43:09.769Z,13704.00
2018-12-26T09:44:09.817Z,14340.00
2018-12-26T09:45:09.846Z,14768.00
2018-12-26T09:46:09.891Z,15024.00
2018-12-26T09:47:09.944Z,14956.00
2018-12-26T09:48:09.986Z,14612.00
2018-12-26T09:49:10.024Z,14160.00
2018-12-26T09:50:10.073Z,13564.00
2018-12-26T09:51:10.132Z,13056.00
2018-12-26T09:52:10.168Z,12644.00
2018-12-26T09:53:10.226Z,12484.00
2018-12-26T09:54:10.256Z,12496.00
2018-12-26T09:55:10.293Z,12696.00
2018-12-26T09:56:10.357Z,12992.00
2018-12-26T09:57:10.417Z,13372.00
2018-12-26T09:58:10.455Z,13776.00
2018-12-26T09:59:10.533Z,14072.00
2018-12-26T10:00:10.584Z,14200.00
2018-12-26T10:01:10.577Z,14192.00
2018-12-26T10:02:10.642Z,14160.00
2018-12-26T10:03:10.771Z,14188.00
2018-12-26T10:04:10.723Z,14280.00
2018-12-26T10:05:10.791Z,14404.00
2018-12-26T10:06:10.823Z,14576.00
2018-12-26T10:07:10.877Z,14828.00
2018-12-26T10:08:10.909Z,15212.00
2018-12-26T10:09:10.990Z,15676.00
2018-12-26T10:10:11.018Z,16168.00
2018-12-26T10:11:11.066Z,16756.00
2018-12-26T10:12:11.107Z,17112.00
2018-12-26T10:13:11.141Z,17696.00
2018-12-26T10:14:11.213Z,17856.00
2018-12-26T10:15:11.240Z,18624.00
2018-12-26T10:16:11.301Z,19680.00
2018-12-26T10:17:11.335Z,20640.00
2018-12-26T10:18:11.411Z,22176.00
2018-12-26T10:19:11.459Z,24384.00
2018-12-26T10:20:11.500Z,27744.00
2018-12-26T10:21:11.536Z,35648.00
2018-12-26T10:22:11.595Z,42528.00
2018-12-26T10:23:11.660Z,48448.00
2018-12-26T10:24:11.671Z,72992.00
2018-12-26T10:25:11.777Z,67136.00
2018-12-26T10:26:11.786Z,61824.00
2018-12-26T10:27:11.843Z,36256.00
2018-12-26T10:28:11.886Z,36960.00
2018-12-26T10:29:11.944Z,31968.00
2018-12-26T10:30:12.014Z,27584.00
2018-12-26T10:31:12.026Z,25376.00
2018-12-26T10:32:12.060Z,24608.00
2018-12-26T10:33:12.128Z,24416.00
2018-12-26T10:34:12.167Z,24128.00
2018-12-26T10:35:12.234Z,25312.00
2018-12-26T10:36:12.305Z,34496.00
2018-12-26T10:37:12.358Z,25344.00
2018-12-26T10:38:12.368Z,25408.00
2018-12-26T10:39:12.474Z,27008.00
2018-12-26T10:40:12.464Z,33728.00
2018-12-26T10:41:12.559Z,33440.00
2018-12-26T10:42:12.589Z,30976.00
2018-12-26T10:43:12.646Z,39392.00
2018-12-26T10:44:12.664Z,36384.00
2018-12-26T10:45:12.753Z,49568.00
2018-12-26T10:46:12.780Z,33184.00
2018-12-26T10:47:12.832Z,33472.00
2018-12-26T10:48:12.876Z,34752.00
2018-12-26T10:49:12.940Z,36128.00
2018-12-26T10:50:12.994Z,36768.00
2018-12-26T10:51:13.027Z,39552.00
2018-12-26T10:52:13.086Z,42400.00
2018-12-26T10:53:13.153Z,49152.00
2018-12-26T10:54:13.206Z,58048.00
2018-12-26T10:55:13.229Z,78656.00
2018-12-26T10:56:13.295Z,46784.00
2018-12-26T10:57:13.329Z,55744.00
2018-12-26T10:58:13.393Z,43424.00
2018-12-26T10:59:13.459Z,40096.00
2018-12-26T11:00:13.493Z,39552.00
2018-12-26T11:01:13.547Z,54656.00
2018-12-26T11:02:13.645Z,41664.00
2018-12-26T11:03:13.657Z,47360.00
2018-12-26T11:04:13.703Z,45600.00
2018-12-26T11:05:13.778Z,38176.00
2018-12-26T11:06:13.804Z,35936.00
2018-12-26T11:07:13.875Z,35360.00
2018-12-26T11:08:13.924Z,35264.00
2018-12-26T11:09:13.957Z,36928.00
2018-12-26T11:10:14.021Z,42560.00
2018-12-26T11:11:14.077Z,50240.00
2018-12-26T11:12:14.104Z,56992.00
2018-12-26T11:13:14.167Z,43712.00
2018-12-26T11:14:14.227Z,79840.00
2018-12-26T11:15:14.281Z,46592.00
2018-12-26T11:16:14.348Z,73664.00
2018-12-26T11:17:14.459Z,125248.00
2018-12-26T11:18:14.431Z,96448.00
2018-12-26T11:19:14.514Z,52224.00
2018-12-26T11:20:14.558Z,45216.00
2018-12-26T11:21:14.654Z,68256.00
2018-12-26T11:22:14.655Z,125600.00
2018-12-26T11:23:14.722Z,73376.00
2018-12-26T11:24:14.773Z,68000.00
2018-12-26T11:25:14.802Z,52096.00
2018-12-26T11:26:14.885Z,104352.00
2018-12-26T11:27:14.916Z,51616.00
2018-12-26T11:28:14.981Z,66080.00
2018-12-26T11:29:18.763Z,135744.00
2018-12-26T11:30:15.078Z,87264.00
2018-12-26T11:31:15.160Z,113952.00
2018-12-26T11:32:15.251Z,130528.00
2018-12-26T11:33:15.257Z,135552.00
2018-12-26T11:34:15.414Z,108576.00
2018-12-26T11:35:15.390Z,41536.00
2018-12-26T11:36:15.446Z,37760.00
2018-12-26T11:37:15.482Z,65504.00
2018-12-26T11:38:15.535Z,99712.00
2018-12-26T11:39:15.651Z,63232.00
2018-12-26T11:40:15.706Z,83936.00
2018-12-26T11:41:15.770Z,116320.00
2018-12-26T11:42:15.794Z,132608.00
2018-12-26T11:43:15.850Z,63584.00
2018-12-26T11:44:15.939Z,126080.00
2018-12-26T11:45:15.950Z,61504.00
2018-12-26T11:46:16.008Z,111296.00
2018-12-26T11:47:16.056Z,105472.00
2018-12-26T11:48:16.110Z,52416.00
2018-12-26T11:49:16.183Z,33280.00
2018-12-26T11:50:16.241Z,49216.00
2018-12-26T11:51:16.339Z,66624.00
2018-12-26T11:52:16.359Z,47840.00
2018-12-26T11:53:16.693Z,51808.00
2018-12-26T11:54:16.455Z,55200.00
2018-12-26T11:55:16.542Z,72096.00
2018-12-26T11:56:16.596Z,85376.00
2018-12-26T11:57:16.641Z,99680.00
2018-12-26T11:58:16.747Z,125120.00
2018-12-26T11:59:16.764Z,115616.00
2018-12-26T12:00:16.804Z,132320.00
2018-12-26T12:01:16.935Z,116032.00
2018-12-26T12:02:20.705Z,98912.00
2018-12-26T12:03:16.987Z,164608.00
2018-12-26T12:04:17.043Z,146528.00
2018-12-26T12:05:17.136Z,129248.00
2018-12-26T12:06:17.168Z,66848.00
2018-12-26T12:07:17.240Z,46688.00
2018-12-26T12:08:17.291Z,45952.00
2018-12-26T12:09:17.348Z,91936.00
2018-12-26T12:10:17.423Z,120960.00
2018-12-26T12:11:17.475Z,137504.00
2018-12-26T12:12:17.520Z,121088.00
2018-12-26T12:13:17.568Z,120896.00
2018-12-26T12:14:17.651Z,129344.00
2018-12-26T12:15:17.706Z,151776.00
2018-12-26T12:16:17.775Z,137824.00
2018-12-26T12:17:17.831Z,60256.00
2018-12-26T12:18:17.890Z,55232.00
2018-12-26T12:19:17.938Z,57344.00
2018-12-26T12:20:18.016Z,139040.00
2018-12-26T12:21:18.075Z,128064.00
2018-12-26T12:22:18.155Z,119360.00
2018-12-26T12:23:18.197Z,118592.00
2018-12-26T12:24:18.259Z,65984.00
2018-12-26T12:25:18.414Z,42432.00
2018-12-26T12:26:18.371Z,44768.00
2018-12-26T12:27:18.444Z,48832.00
2018-12-26T12:28:18.488Z,47296.00
2018-12-26T12:29:18.555Z,134304.00
2018-12-26T12:30:18.610Z,136704.00
2018-12-26T12:31:18.682Z,140864.00
2018-12-26T12:32:18.738Z,124096.00
2018-12-26T12:33:18.784Z,98336.00
2018-12-26T12:34:18.842Z,83552.00
2018-12-26T12:35:18.913Z,89696.00
2018-12-26T12:36:18.957Z,83328.00
2018-12-26T12:37:19.032Z,79072.00
2018-12-26T12:38:19.082Z,57664.00
2018-12-26T12:39:19.157Z,56480.00
2018-12-26T12:40:19.268Z,124672.00
2018-12-26T12:41:19.269Z,141024.00
2018-12-26T12:42:19.344Z,76224.00
2018-12-26T12:43:19.399Z,131424.00
2018-12-26T12:44:21.545Z,151936.00